createdAt,value
2022-08-28T00:01:47.203Z,2.92
2022-08-28T00:04:52.630Z,2.13
2022-08-28T00:11:03.034Z,1.27
2022-08-28T00:14:10.541Z,1.65
2022-08-28T00:17:15.097Z,3.13
2022-08-28T00:20:22.004Z,2.17
2022-08-28T00:23:32.927Z,1.90
2022-08-28T00:27:06.138Z,2.38
2022-08-28T00:30:11.394Z,1.63
2022-08-28T00:33:19.129Z,4.45
2022-08-28T00:36:24.787Z,2.22
2022-08-28T00:39:29.843Z,3.83
2022-08-28T00:42:39.231Z,3.80
2022-08-28T00:45:43.866Z,2.25
2022-08-28T00:48:48.632Z,2.17
2022-08-28T00:52:12.288Z,2.72
2022-08-28T00:55:21.468Z,2.85
2022-08-28T00:58:26.090Z,1.75
2022-08-28T01:01:30.911Z,0.88
2022-08-28T01:04:37.451Z,2.28
2022-08-28T01:07:42.771Z,1.30
2022-08-28T01:14:01.889Z,1.27
2022-08-28T01:17:10.397Z,3.80
2022-08-28T01:20:20.224Z,2.65
2022-08-28T01:23:43.359Z,2.17
2022-08-28T01:26:48.185Z,1.60
2022-08-28T01:29:52.540Z,2.42
2022-08-28T01:32:58.237Z,1.98
2022-08-28T01:36:03.095Z,3.95
2022-08-28T01:39:18.499Z,1.52
2022-08-28T01:42:23.421Z,1.85
2022-08-28T01:45:28.264Z,2.80
2022-08-28T01:51:42.165Z,3.25
2022-08-28T01:54:46.923Z,1.05
2022-08-28T01:57:54.726Z,8.13
2022-08-28T02:00:59.180Z,1.55
2022-08-28T02:04:05.351Z,2.27
2022-08-28T02:07:09.936Z,2.05
2022-08-28T02:10:14.646Z,6.30
2022-08-28T02:13:19.080Z,2.92
2022-08-28T02:19:30.737Z,7.88
2022-08-28T02:22:35.524Z,6.25
2022-08-28T02:25:40.483Z,6.60
2022-08-28T02:28:45.468Z,8.02
2022-08-28T02:31:50.844Z,7.55
2022-08-28T02:34:56.751Z,9.35
2022-08-28T02:38:02.400Z,0.90
2022-08-28T02:41:08.379Z,4.55
2022-08-28T02:44:13.220Z,2.78
2022-08-28T02:47:19.140Z,4.43
2022-08-28T02:50:24.965Z,1.30
2022-08-28T02:53:29.687Z,4.75
2022-08-28T02:56:34.389Z,1.13
2022-08-28T02:59:39.620Z,1.00
2022-08-28T03:02:46.503Z,5.22
2022-08-28T03:05:51.109Z,3.42
2022-08-28T03:08:55.754Z,2.00
2022-08-28T03:12:00.383Z,2.28
2022-08-28T03:15:07.023Z,2.20
2022-08-28T03:18:12.833Z,0.70
2022-08-28T03:21:17.601Z,1.05
2022-08-28T03:24:22.668Z,2.03
2022-08-28T03:27:27.235Z,0.82
2022-08-28T03:30:32.202Z,2.43
2022-08-28T03:33:36.979Z,11.57
2022-08-28T03:36:41.676Z,1.88
2022-08-28T03:39:46.388Z,2.00
2022-08-28T03:42:53.490Z,4.95
2022-08-28T03:46:07.321Z,1.00
2022-08-28T03:49:12.046Z,0.85
2022-08-28T03:52:16.808Z,6.05
2022-08-28T03:55:21.479Z,5.35
2022-08-28T03:58:27.356Z,1.67
2022-08-28T04:01:31.986Z,3.83
2022-08-28T04:04:36.648Z,0.93
2022-08-28T04:07:41.579Z,4.90
2022-08-28T04:10:47.394Z,1.80
2022-08-28T04:13:52.282Z,0.93
2022-08-28T04:17:00.925Z,3.22
2022-08-28T04:20:07.886Z,3.25
2022-08-28T04:23:12.294Z,4.15
2022-08-28T04:26:19.758Z,1.70
2022-08-28T04:29:24.529Z,4.05
2022-08-28T04:32:29.386Z,3.17
2022-08-28T04:35:34.019Z,1.23
2022-08-28T04:38:43.757Z,1.05
2022-08-28T04:41:50.997Z,2.58
2022-08-28T04:45:02.027Z,0.80
2022-08-28T04:48:11.383Z,3.03
2022-08-28T04:51:18.382Z,1.98
2022-08-28T04:54:23.343Z,1.95
2022-08-28T04:57:31.264Z,1.02
2022-08-28T05:00:41.098Z,6.03
2022-08-28T05:03:46.910Z,4.22
2022-08-28T05:06:51.563Z,1.85
2022-08-28T05:09:56.131Z,1.08
2022-08-28T05:13:00.890Z,2.60
2022-08-28T05:16:06.116Z,11.43
2022-08-28T05:22:15.474Z,1.45
2022-08-28T05:25:20.018Z,3.13
2022-08-28T05:28:28.069Z,3.60
2022-08-28T05:31:33.946Z,3.60
2022-08-28T05:34:38.583Z,4.05
2022-08-28T05:37:43.215Z,1.73
2022-08-28T05:40:50.325Z,1.25
2022-08-28T05:43:55.147Z,2.17
2022-08-28T05:46:59.819Z,3.08
2022-08-28T05:50:04.597Z,0.77
2022-08-28T05:53:09.063Z,1.13
2022-08-28T05:56:16.547Z,2.57
2022-08-28T05:59:21.644Z,1.20
2022-08-28T06:02:27.566Z,0.73
2022-08-28T06:05:32.130Z,4.15
2022-08-28T06:08:37.464Z,5.50
2022-08-28T06:11:44.608Z,4.32
2022-08-28T06:14:50.848Z,1.02
2022-08-28T06:17:55.437Z,1.20
2022-08-28T06:21:06.903Z,2.17
2022-08-28T06:24:14.274Z,2.15
2022-08-28T06:27:19.177Z,2.20
2022-08-28T06:30:24.016Z,1.92
2022-08-28T06:36:38.438Z,8.70
2022-08-28T06:39:43.320Z,3.63
2022-08-28T06:42:47.966Z,1.17
2022-08-28T06:45:57.332Z,3.78
2022-08-28T06:49:04.817Z,2.70
2022-08-28T06:52:09.542Z,6.35
2022-08-28T06:55:14.379Z,3.25
2022-08-28T06:58:20.016Z,2.65
2022-08-28T07:01:30.080Z,5.77
2022-08-28T07:04:34.910Z,5.38
2022-08-28T07:07:39.699Z,1.23
2022-08-28T07:10:44.353Z,2.80
2022-08-28T07:13:50.099Z,3.00
2022-08-28T07:16:54.929Z,2.55
2022-08-28T07:19:59.628Z,3.13
2022-08-28T07:23:04.472Z,6.35
2022-08-28T07:26:12.875Z,4.50
2022-08-28T07:29:19.284Z,4.10
2022-08-28T07:32:23.929Z,2.40
2022-08-28T07:35:28.440Z,3.45
2022-08-28T07:38:32.958Z,2.80
2022-08-28T07:41:40.024Z,5.15
2022-08-28T07:44:51.239Z,6.32
2022-08-28T07:47:56.036Z,3.15
2022-08-28T07:51:00.352Z,7.85
2022-08-28T07:54:05.850Z,5.75
2022-08-28T07:57:11.159Z,2.60
2022-08-28T08:00:16.447Z,5.93
2022-08-28T08:06:34.035Z,6.15
2022-08-28T08:09:44.568Z,1.63
2022-08-28T08:12:49.632Z,17.70
2022-08-28T08:16:07.471Z,4.35
2022-08-28T08:19:16.349Z,6.15
2022-08-28T08:22:21.610Z,17.10
2022-08-28T08:25:26.098Z,4.80
2022-08-28T08:28:31.128Z,3.13
2022-08-28T08:31:35.783Z,12.35
2022-08-28T08:34:46.672Z,4.85
2022-08-28T08:37:51.206Z,6.25
2022-08-28T08:40:56.467Z,2.10
2022-08-28T08:47:39.482Z,2.45
2022-08-28T08:50:44.373Z,2.08
2022-08-28T08:54:05.123Z,3.13
2022-08-28T08:57:13.390Z,11.63
2022-08-28T09:00:19.953Z,3.35
2022-08-28T09:03:40.511Z,2.67
2022-08-28T09:06:51.546Z,3.22
2022-08-28T09:09:57.902Z,5.15
2022-08-28T09:13:15.125Z,6.90
2022-08-28T09:16:28.722Z,9.27
2022-08-28T09:19:33.817Z,5.93
2022-08-28T09:25:46.601Z,5.40
2022-08-28T09:29:17.358Z,4.35
2022-08-28T09:32:24.742Z,8.90
2022-08-28T09:35:32.714Z,10.15
2022-08-28T09:38:37.586Z,13.95
2022-08-28T09:42:21.233Z,12.93
2022-08-28T09:45:29.967Z,13.77
2022-08-28T09:48:40.801Z,21.63
2022-08-28T09:51:45.517Z,17.67
2022-08-28T09:54:51.796Z,29.75
2022-08-28T09:57:56.483Z,13.40
2022-08-28T10:01:11.814Z,26.80
2022-08-28T10:04:16.756Z,28.48
2022-08-28T10:07:50.082Z,26.85
2022-08-28T10:11:00.089Z,24.27
2022-08-28T10:14:30.488Z,25.63
2022-08-28T10:17:41.420Z,35.13
2022-08-28T10:21:05.959Z,36.47
2022-08-28T10:24:29.183Z,38.45
2022-08-28T10:27:59.258Z,19.42
2022-08-28T10:31:28.203Z,29.42
2022-08-28T10:34:55.303Z,21.48
2022-08-28T10:38:17.265Z,23.58
2022-08-28T10:41:47.119Z,19.33
2022-08-28T10:45:01.142Z,27.40
2022-08-28T10:48:31.044Z,21.65
2022-08-28T10:51:45.409Z,26.92
2022-08-28T10:55:08.814Z,28.55
2022-08-28T10:58:24.400Z,26.25
2022-08-28T11:01:36.725Z,26.75
2022-08-28T11:04:41.970Z,29.63
2022-08-28T11:10:56.467Z,12.82
2022-08-28T11:14:03.499Z,16.50
2022-08-28T11:17:14.288Z,11.82
2022-08-28T11:20:27.004Z,22.48
2022-08-28T11:24:22.311Z,15.43
2022-08-28T11:27:38.352Z,26.75
2022-08-28T11:30:46.554Z,63.08
2022-08-28T11:33:53.836Z,20.35
2022-08-28T11:37:00.763Z,26.88
2022-08-28T11:40:41.643Z,9.55
2022-08-28T11:43:47.412Z,17.75
2022-08-28T11:46:54.140Z,15.40
2022-08-28T11:50:34.185Z,11.90
2022-08-28T11:53:47.191Z,13.95
2022-08-28T11:57:12.242Z,16.15
2022-08-28T12:00:35.168Z,9.95
2022-08-28T12:03:42.817Z,10.35
2022-08-28T12:06:55.217Z,11.27
2022-08-28T12:10:04.284Z,13.02
2022-08-28T12:13:10.965Z,10.13
2022-08-28T12:16:16.232Z,8.30
2022-08-28T12:19:56.048Z,15.15
2022-08-28T12:23:05.168Z,8.40
2022-08-28T12:26:43.014Z,11.02
2022-08-28T12:29:52.563Z,12.68
2022-08-28T12:33:32.866Z,8.40
2022-08-28T12:36:37.413Z,10.63
2022-08-28T12:39:43.854Z,12.37
2022-08-28T12:42:55.347Z,19.25
2022-08-28T12:46:19.112Z,10.63
2022-08-28T12:49:39.085Z,5.70
2022-08-28T12:52:51.182Z,6.43
2022-08-28T12:55:56.009Z,9.48
2022-08-28T12:59:27.338Z,9.27
2022-08-28T13:02:37.315Z,5.15
2022-08-28T13:05:42.092Z,9.23
2022-08-28T13:08:49.659Z,8.05
2022-08-28T13:11:54.395Z,10.25
2022-08-28T13:14:59.160Z,4.60
2022-08-28T13:18:04.046Z,4.33
2022-08-28T13:21:32.670Z,15.13
2022-08-28T13:24:43.245Z,5.95
2022-08-28T13:28:13.448Z,6.78
2022-08-28T13:31:32.341Z,9.50
2022-08-28T13:34:47.796Z,8.52
2022-08-28T13:37:59.886Z,10.05
2022-08-28T13:41:05.699Z,9.35
2022-08-28T13:44:10.795Z,7.53
2022-08-28T13:47:16.528Z,4.93
2022-08-28T13:50:21.123Z,6.00
2022-08-28T13:53:28.144Z,8.07
2022-08-28T13:56:32.723Z,7.03
2022-08-28T13:59:37.393Z,6.78
2022-08-28T14:03:01.284Z,6.78
2022-08-28T14:06:19.352Z,6.75
2022-08-28T14:09:27.981Z,4.22
2022-08-28T14:15:38.026Z,4.88
2022-08-28T14:18:42.646Z,10.10
2022-08-28T14:21:48.072Z,8.93
2022-08-28T14:24:53.033Z,6.55
2022-08-28T14:27:57.854Z,4.63
2022-08-28T14:31:02.528Z,3.77
2022-08-28T14:34:07.417Z,4.50
2022-08-28T14:37:12.339Z,6.65
2022-08-28T14:40:17.212Z,6.80
2022-08-28T14:43:22.180Z,10.30
2022-08-28T14:46:34.110Z,7.88
2022-08-28T14:49:40.153Z,8.02
2022-08-28T14:52:44.714Z,7.07
2022-08-28T14:55:51.276Z,8.10
2022-08-28T14:58:56.563Z,6.20
2022-08-28T15:02:02.987Z,4.97
2022-08-28T15:05:07.871Z,7.22
2022-08-28T15:08:16.601Z,7.25
2022-08-28T15:11:24.555Z,8.50
2022-08-28T15:14:29.319Z,5.25
2022-08-28T15:17:34.680Z,6.13
2022-08-28T15:23:45.265Z,8.80
2022-08-28T15:26:50.179Z,7.20
2022-08-28T15:29:54.697Z,4.80
2022-08-28T15:32:59.363Z,4.65
2022-08-28T15:36:04.149Z,3.57
2022-08-28T15:39:28.791Z,6.03
2022-08-28T15:42:33.905Z,5.80
2022-08-28T15:45:42.856Z,6.30
2022-08-28T15:48:49.229Z,7.13
2022-08-28T15:51:54.627Z,6.00
2022-08-28T15:54:58.914Z,5.13
2022-08-28T15:58:03.572Z,6.57
2022-08-28T16:01:10.694Z,3.03
2022-08-28T16:04:16.747Z,6.18
2022-08-28T16:07:22.703Z,9.13
2022-08-28T16:10:27.329Z,5.07
2022-08-28T16:13:32.229Z,5.35
2022-08-28T16:16:37.010Z,5.38
2022-08-28T16:19:42.995Z,6.78
2022-08-28T16:22:47.749Z,6.30
2022-08-28T16:25:52.490Z,5.77
2022-08-28T16:28:57.560Z,4.20
2022-08-28T16:32:03.342Z,5.22
2022-08-28T16:35:08.791Z,10.48
2022-08-28T16:38:14.811Z,6.22
2022-08-28T16:41:22.871Z,12.98
2022-08-28T16:44:27.571Z,7.50
2022-08-28T16:47:34.364Z,11.40
2022-08-28T16:50:39.051Z,3.42
2022-08-28T16:53:44.349Z,9.50
2022-08-28T16:56:49.215Z,14.38
2022-08-28T16:59:54.271Z,4.85
2022-08-28T17:02:59.820Z,7.10
2022-08-28T17:06:17.087Z,4.80
2022-08-28T17:09:21.554Z,4.72
2022-08-28T17:12:26.389Z,5.15
2022-08-28T17:15:30.978Z,4.23
2022-08-28T17:18:36.611Z,10.55
2022-08-28T17:21:59.516Z,12.75
2022-08-28T17:25:10.691Z,3.47
2022-08-28T17:28:16.075Z,7.97
2022-08-28T17:34:29.961Z,7.72
2022-08-28T17:37:35.043Z,4.22
2022-08-28T17:40:40.230Z,8.07
2022-08-28T17:43:45.080Z,5.28
2022-08-28T17:46:49.579Z,3.73
2022-08-28T17:49:54.139Z,5.93
2022-08-28T17:52:58.803Z,5.65
2022-08-28T17:56:07.323Z,5.10
2022-08-28T17:59:12.826Z,3.78
2022-08-28T18:02:18.094Z,5.75
2022-08-28T18:05:23.246Z,4.70
2022-08-28T18:08:28.565Z,6.20
2022-08-28T18:58:18.173Z,7.57
2022-08-28T19:01:23.086Z,5.10
2022-08-28T19:04:27.765Z,5.38
2022-08-28T19:07:32.397Z,4.00
2022-08-28T19:10:41.645Z,5.70
2022-08-28T19:13:46.115Z,9.93
2022-08-28T19:16:50.611Z,2.92
2022-08-28T19:19:55.467Z,4.03
2022-08-28T19:23:00.909Z,3.55
2022-08-28T19:26:10.562Z,3.60
2022-08-28T19:29:15.930Z,5.28
2022-08-28T19:32:22.239Z,3.30
2022-08-28T19:35:30.044Z,5.90
2022-08-28T19:38:34.942Z,2.63
2022-08-28T19:41:39.847Z,5.33
2022-08-28T19:44:44.976Z,2.38
2022-08-28T19:47:49.628Z,4.80
2022-08-28T19:51:06.061Z,4.57
2022-08-28T19:54:18.838Z,7.90
2022-08-28T19:57:23.513Z,4.13
2022-08-28T20:00:30.351Z,5.78
2022-08-28T20:03:35.630Z,7.15
2022-08-28T20:06:40.358Z,5.50
2022-08-28T20:09:45.825Z,3.87
2022-08-28T20:12:50.570Z,6.90
2022-08-28T20:15:55.182Z,4.33
2022-08-28T20:18:59.724Z,4.13
2022-08-28T20:22:04.888Z,3.22
2022-08-28T20:25:10.066Z,5.10
2022-08-28T20:28:15.910Z,2.70
2022-08-28T20:31:21.404Z,3.08
2022-08-28T20:34:28.141Z,5.43
2022-08-28T20:37:35.213Z,3.57
2022-08-28T20:40:50.260Z,5.20
2022-08-28T20:43:54.845Z,4.38
2022-08-28T20:46:59.530Z,3.33
2022-08-28T20:50:04.603Z,6.07
2022-08-28T20:53:09.122Z,4.25
2022-08-28T20:56:13.769Z,3.85
2022-08-28T20:59:18.604Z,5.30
2022-08-28T21:02:26.898Z,3.75
2022-08-28T21:05:32.141Z,6.43
2022-08-28T21:08:39.717Z,4.60
2022-08-28T21:11:45.452Z,5.13
2022-08-28T21:14:51.230Z,6.18
2022-08-28T21:17:56.645Z,4.82
2022-08-28T21:21:01.344Z,6.85
2022-08-28T21:27:12.599Z,3.83
2022-08-28T21:30:19.771Z,2.67
2022-08-28T21:33:24.584Z,7.28
2022-08-28T21:36:29.467Z,4.55
2022-08-28T21:39:34.211Z,4.13
2022-08-28T21:42:39.146Z,10.82
2022-08-28T21:45:43.764Z,4.53
2022-08-28T21:48:53.979Z,4.40
2022-08-28T21:52:02.048Z,4.22
2022-08-28T21:55:11.677Z,7.13
2022-08-28T21:58:16.317Z,6.90
2022-08-28T22:01:22.729Z,3.90
2022-08-28T22:04:27.457Z,3.58
2022-08-28T22:07:32.630Z,7.80
2022-08-28T22:10:40.375Z,5.85
2022-08-28T22:13:45.271Z,2.78
2022-08-28T22:16:50.080Z,9.40
2022-08-28T22:19:55.911Z,4.40
2022-08-28T22:23:13.191Z,3.97
2022-08-28T22:26:20.377Z,7.28
2022-08-28T22:29:25.184Z,8.60
2022-08-28T22:32:29.865Z,3.65
2022-08-28T22:35:35.127Z,4.23
2022-08-28T22:38:40.659Z,6.88
2022-08-28T22:41:45.751Z,3.60
2022-08-28T22:44:50.075Z,3.60
2022-08-28T22:47:55.060Z,9.70
2022-08-28T22:51:13.431Z,6.47
2022-08-28T22:54:19.249Z,5.78
2022-08-28T22:57:24.801Z,3.53
2022-08-28T23:03:35.508Z,4.22
2022-08-28T23:06:42.865Z,9.07
2022-08-28T23:09:48.233Z,8.18
2022-08-28T23:12:52.782Z,4.93
2022-08-28T23:15:57.538Z,2.33
2022-08-28T23:19:09.185Z,4.35
2022-08-28T23:22:14.482Z,20.02
2022-08-28T23:25:22.328Z,3.72
2022-08-28T23:28:27.155Z,6.63
2022-08-28T23:31:31.822Z,17.58
2022-08-28T23:34:37.663Z,4.55
2022-08-28T23:37:48.016Z,5.03
2022-08-28T23:40:53.452Z,8.95
2022-08-28T23:43:58.302Z,4.20
2022-08-28T23:47:03.291Z,8.55
2022-08-28T23:50:15.593Z,18.30
2022-08-28T23:53:20.265Z,4.80
2022-08-28T23:56:28.243Z,6.95
2022-08-28T23:59:33.520Z,4.03
